createdAt,value
2022-07-29T00:04:18.221Z,2.50
2022-07-29T00:10:21.918Z,2.30
2022-07-29T00:16:25.460Z,2.40
2022-07-29T00:22:30.256Z,2.28
2022-07-29T00:28:33.604Z,2.10
2022-07-29T00:34:54.534Z,2.40
2022-07-29T00:40:59.376Z,2.40
2022-07-29T00:47:02.824Z,2.30
2022-07-29T00:53:06.327Z,2.85
2022-07-29T00:59:11.074Z,3.03
2022-07-29T01:05:15.107Z,2.47
2022-07-29T01:11:18.720Z,2.85
2022-07-29T01:17:26.828Z,3.42
2022-07-29T01:23:33.191Z,3.47
2022-07-29T01:29:40.528Z,3.50
2022-07-29T01:35:44.806Z,3.72
2022-07-29T01:41:58.657Z,3.88
2022-07-29T01:48:05.135Z,3.63
2022-07-29T01:54:11.451Z,3.65
2022-07-29T02:00:15.655Z,3.70
2022-07-29T02:06:21.587Z,3.50
2022-07-29T02:12:26.490Z,3.90
2022-07-29T02:18:30.912Z,3.40
2022-07-29T02:24:36.412Z,3.70
2022-07-29T02:30:42.195Z,3.90
2022-07-29T02:36:46.852Z,3.90
2022-07-29T02:42:54.292Z,3.78
2022-07-29T02:48:59.321Z,3.95
2022-07-29T02:55:04.472Z,3.83
2022-07-29T03:01:16.825Z,3.92
2022-07-29T03:07:24.720Z,4.18
2022-07-29T03:13:28.608Z,4.20
2022-07-29T03:19:33.873Z,3.88
2022-07-29T03:25:37.459Z,4.00
2022-07-29T03:31:41.769Z,4.05
2022-07-29T03:37:48.730Z,4.32
2022-07-29T03:43:52.638Z,4.53
2022-07-29T03:49:59.584Z,4.47
2022-07-29T03:56:04.801Z,4.38
2022-07-29T04:02:09.186Z,4.68
2022-07-29T04:08:12.642Z,4.55
2022-07-29T04:14:18.021Z,4.38
2022-07-29T04:20:21.992Z,4.38
2022-07-29T04:26:25.381Z,4.50
2022-07-29T04:32:30.151Z,4.40
2022-07-29T04:38:33.565Z,4.80
2022-07-29T04:44:37.234Z,4.63
2022-07-29T04:50:45.286Z,4.30
2022-07-29T04:56:49.880Z,4.28
2022-07-29T05:02:53.311Z,4.03
2022-07-29T05:08:59.205Z,4.55
2022-07-29T05:15:02.872Z,3.80
2022-07-29T05:21:06.280Z,3.97
2022-07-29T05:27:11.533Z,4.00
2022-07-29T05:33:34.712Z,3.75
2022-07-29T05:39:48.683Z,3.53
2022-07-29T05:45:55.529Z,3.50
2022-07-29T05:51:59.174Z,3.75
2022-07-29T05:58:02.630Z,3.55
2022-07-29T06:04:07.568Z,3.80
2022-07-29T06:10:11.651Z,4.20
2022-07-29T06:16:15.802Z,3.60
2022-07-29T06:22:35.163Z,3.45
2022-07-29T06:28:38.548Z,3.40
2022-07-29T06:34:42.005Z,3.22
2022-07-29T06:41:05.058Z,3.50
2022-07-29T06:47:09.157Z,3.30
2022-07-29T06:53:13.061Z,3.67
2022-07-29T06:59:17.796Z,3.53
2022-07-29T07:05:21.220Z,3.33
2022-07-29T07:11:24.584Z,3.30
2022-07-29T07:17:29.379Z,3.88
2022-07-29T07:23:32.742Z,3.42
2022-07-29T07:29:37.375Z,4.03
2022-07-29T07:35:42.261Z,3.85
2022-07-29T07:41:45.671Z,3.67
2022-07-29T07:47:49.049Z,3.10
2022-07-29T07:53:53.881Z,3.60
2022-07-29T07:59:57.331Z,3.53
2022-07-29T08:06:01.166Z,3.40
2022-07-29T08:12:06.936Z,3.50
2022-07-29T08:18:10.812Z,3.47
2022-07-29T08:24:31.937Z,2.40
2022-07-29T08:30:36.890Z,3.80
2022-07-29T08:36:40.300Z,3.90
2022-07-29T08:42:43.702Z,3.03
2022-07-29T08:48:48.752Z,2.75
2022-07-29T08:54:52.514Z,2.70
2022-07-29T09:00:58.197Z,3.55
2022-07-29T09:07:03.972Z,3.00
2022-07-29T09:13:07.569Z,3.15
2022-07-29T09:19:22.004Z,2.40
2022-07-29T09:25:36.857Z,3.03
2022-07-29T09:31:41.638Z,2.50
2022-07-29T09:37:45.271Z,2.30
2022-07-29T09:43:57.382Z,2.13
2022-07-29T09:50:01.819Z,3.20
2022-07-29T09:56:05.770Z,2.25
2022-07-29T10:02:22.005Z,2.65
2022-07-29T10:08:28.112Z,1.80
2022-07-29T10:14:32.502Z,2.20
2022-07-29T10:20:37.583Z,2.22
2022-07-29T10:26:41.953Z,1.60
2022-07-29T10:32:58.913Z,1.80
2022-07-29T10:39:08.168Z,2.92
2022-07-29T10:45:13.301Z,2.67
2022-07-29T10:51:19.264Z,2.42
2022-07-29T10:57:53.056Z,3.13
2022-07-29T11:03:53.783Z,2.83
2022-07-29T11:10:20.159Z,1.45
2022-07-29T11:16:25.610Z,2.80
2022-07-29T11:22:35.747Z,2.83
2022-07-29T11:28:41.929Z,2.80
2022-07-29T11:34:47.153Z,1.88
2022-07-29T11:41:05.514Z,2.50
2022-07-29T11:47:10.468Z,2.10
2022-07-29T11:53:16.320Z,2.50
2022-07-29T11:59:20.483Z,2.55
2022-07-29T12:05:36.124Z,3.03
2022-07-29T12:11:41.781Z,2.58
2022-07-29T12:17:48.800Z,2.35
2022-07-29T12:23:55.746Z,2.78
2022-07-29T12:30:08.572Z,2.78
2022-07-29T12:36:17.290Z,1.92
2022-07-29T12:42:21.188Z,1.90
2022-07-29T12:48:37.997Z,2.08
2022-07-29T12:54:49.465Z,2.13
2022-07-29T13:01:01.232Z,2.40
2022-07-29T13:07:08.319Z,1.80
2022-07-29T13:13:13.615Z,2.20
2022-07-29T13:19:17.029Z,1.52
2022-07-29T13:25:28.424Z,1.90
2022-07-29T13:31:31.915Z,3.00
2022-07-29T13:37:36.034Z,2.35
2022-07-29T13:43:40.781Z,1.80
2022-07-29T13:49:44.182Z,3.03
2022-07-29T13:55:47.645Z,2.60
2022-07-29T14:01:53.216Z,3.00
2022-07-29T14:07:56.707Z,2.25
2022-07-29T14:14:00.112Z,2.17
2022-07-29T14:20:04.988Z,2.42
2022-07-29T14:26:08.746Z,2.55
2022-07-29T14:32:17.405Z,2.28
2022-07-29T14:38:22.154Z,3.33
2022-07-29T14:44:32.336Z,2.35
2022-07-29T14:50:36.139Z,1.77
2022-07-29T14:56:46.505Z,2.90
2022-07-29T15:03:01.955Z,2.88
2022-07-29T15:09:06.107Z,2.10
2022-07-29T15:15:13.172Z,2.03
2022-07-29T15:21:16.580Z,2.30
2022-07-29T15:27:20.050Z,3.22
2022-07-29T15:33:24.796Z,1.88
2022-07-29T15:39:28.209Z,2.80
2022-07-29T15:45:32.560Z,3.10
2022-07-29T15:51:38.459Z,2.20
2022-07-29T15:57:42.009Z,2.85
2022-07-29T16:03:46.406Z,2.53
2022-07-29T16:09:53.317Z,2.05
2022-07-29T16:16:02.470Z,2.40
2022-07-29T16:22:06.322Z,2.30
2022-07-29T16:28:11.107Z,2.70
2022-07-29T16:34:14.522Z,3.50
2022-07-29T16:40:17.898Z,2.95
2022-07-29T16:46:22.840Z,2.70
2022-07-29T16:52:29.211Z,2.83
2022-07-29T16:58:33.143Z,1.55
2022-07-29T17:04:38.020Z,2.42
2022-07-29T17:10:41.583Z,2.33
2022-07-29T17:16:58.920Z,3.08
2022-07-29T17:23:06.406Z,2.05
2022-07-29T17:29:09.929Z,1.67
2022-07-29T17:35:34.314Z,2.10
2022-07-29T17:41:40.833Z,1.73
2022-07-29T17:47:45.147Z,2.00
2022-07-29T17:53:49.153Z,2.17
2022-07-29T17:59:54.074Z,1.90
2022-07-29T18:05:57.580Z,2.50
2022-07-29T18:12:04.099Z,2.13
2022-07-29T18:18:09.823Z,1.65
2022-07-29T18:24:13.201Z,2.08
2022-07-29T18:30:16.685Z,2.35
2022-07-29T18:36:21.705Z,2.53
2022-07-29T18:42:25.365Z,2.45
2022-07-29T18:48:28.809Z,2.15
2022-07-29T18:54:33.688Z,1.92
2022-07-29T19:00:37.062Z,1.73
2022-07-29T19:06:40.779Z,2.10
2022-07-29T19:12:45.527Z,1.92
2022-07-29T19:18:49.247Z,2.42
2022-07-29T19:24:54.167Z,1.90
2022-07-29T19:30:59.470Z,2.47
2022-07-29T19:37:03.422Z,2.50
2022-07-29T19:43:51.271Z,3.30
2022-07-29T19:49:37.126Z,3.08
2022-07-29T19:55:42.128Z,3.42
2022-07-29T20:01:45.572Z,3.40
2022-07-29T20:07:50.470Z,3.92
2022-07-29T20:13:53.838Z,3.97
2022-07-29T20:19:59.970Z,3.60
2022-07-29T20:26:09.195Z,3.72
2022-07-29T20:32:13.028Z,3.65
2022-07-29T20:38:18.343Z,3.90
2022-07-29T20:44:24.435Z,3.83
2022-07-29T20:50:28.656Z,4.00
2022-07-29T20:56:32.003Z,3.58
2022-07-29T21:02:36.883Z,4.32
2022-07-29T21:08:40.642Z,4.50
2022-07-29T21:14:48.163Z,4.88
2022-07-29T21:20:52.957Z,5.13
2022-07-29T21:27:21.743Z,5.70
2022-07-29T21:33:25.467Z,4.47
2022-07-29T21:39:30.263Z,4.32
2022-07-29T21:45:33.640Z,3.95
2022-07-29T21:51:37.071Z,4.85
2022-07-29T21:57:41.880Z,4.93
2022-07-29T22:03:45.283Z,4.95
2022-07-29T22:09:48.736Z,4.35
2022-07-29T22:15:53.475Z,4.78
2022-07-29T22:21:56.899Z,4.78
2022-07-29T22:28:00.262Z,4.93
2022-07-29T22:34:11.691Z,5.28
2022-07-29T22:40:15.676Z,5.07
2022-07-29T22:46:19.186Z,5.13
2022-07-29T22:52:24.109Z,5.78
2022-07-29T22:58:28.339Z,5.05
2022-07-29T23:04:31.789Z,5.50
2022-07-29T23:10:36.613Z,5.15
2022-07-29T23:16:40.054Z,5.45
2022-07-29T23:22:44.029Z,4.60
2022-07-29T23:28:48.934Z,5.65
2022-07-29T23:34:52.320Z,6.15
2022-07-29T23:40:55.774Z,5.78
2022-07-29T23:47:00.921Z,5.20
2022-07-29T23:53:04.503Z,6.15
2022-07-29T23:59:07.975Z,5.72
